Yellow Jacket, CO (81335)

8:50 AM MDT on August 27, 2016 (GMT -0600)
E. G. Merritt Ranch, Arriola | | Change Station

Elev 6591 ft 37.45 °N, 108.69 °W | Updated 6 minutes ago

Mostly Cloudy
Mostly Cloudy
54.1 °F
Feels Like 54.1 °F
N
6.3
Wind Variable Wind from ENE

Today
High -- | Low -- °F
--% Chance of Precip.
Yesterday
High -- | Low -- °F
Precip. -- in
Pressure 30.22 in
Visibility 10.0 miles
Clouds Scattered Clouds 7500 ft
Mostly Cloudy 10000 ft
Dew Point 47 °F
Humidity 78%
Rainfall 0.00 in
Snow Depth Not available.
6:41 AM 7:50 PM
Waning Crescent, 24% visible
SPECI KCEZ 271435Z AUTO 08009KT 10SM SCT075 BKN100 12/11 A3022 RMK AO2 RAB16E35 P0008 T01220106
Pressure 30.22 in
Visibility 10.0 miles
Clouds Scattered Clouds 7500 ft
Mostly Cloudy 10000 ft
Dew Point 47 °F
Humidity 78%
Rainfall 0.00 in
Snow Depth Not available.
6:41 AM 7:50 PM
Waning Crescent, 24% visible
SPECI KCEZ 271435Z AUTO 08009KT 10SM SCT075 BKN100 12/11 A3022 RMK AO2 RAB16E35 P0008 T01220106

10-Day Weather Forecast

Almanac

Astronomy

Aug. 27, 2016 Rise Set
Actual Time
Civil Twilight
Nautical Twilight
Astronomical Twilight
Moon
Length of Visible Light
Length of Day
Tomorrow will be .
, % of the Moon is Illuminated

Today's Extremes

State Highs State Lows

Community

WunderPhotos

Upload Photos

1,935,344 photos uploaded!

WunderBlog® & News

Nearby

Air Quality

  Air Quality AQ Index Pollutant
Not available.

Snow Depth

Station Depth Elevation

Earthquake Activity

City Distance Mag. Time & Date
Minimum magnitude displayed is 2.5.

Coastal Water Temperatures

Place Temperature

Stations

Nearby Weather Stations

Station Location Temp. Windchill Dew Point Humidity Wind Precip. Elev Updated Type
                   

Watches & Warnings

There are currently no watches in effect.